Airfield :
LOGIN :

Register | Disclaimer

   EN    FR    IT 

 










Legend :    VFR   Marginal VFR   IFR   Intensive IFR   Very Intensive IFR
Visi :
Ceiling :
>= 8 km
>= 3000ft
5 to 8 km
1000 to 3000 ft
1500m to 5 km
500 to 1000 ft
800 to 1500m
200 to 500 ft
< 800m
< 200 ft
Symbols :   Thunderstorms  Fog  Heavy snow  Heavy precipitations  Wind > 20 kt
SIGMETs :     Misc.  Thunderstorms  Icing  Turbulence  Mountain Waves  Volcanic Ashes






- Airport Elevation : 289 ft
- IATA code : ZAD


LDZD - Zadar

CURRENT METAR :
  • 250230Z 09003KT 9999 FEW040 22/16 Q1010 NOSIG

EXPIRED METARs :
  • 250200Z 08002KT 9999 FEW040 22/15 Q1010 NOSIG
  • 250130Z 14005KT 100V180 9999 FEW040 23/15 Q1010
  • 250100Z 07007KT 040V120 9999 FEW040 25/15 Q1011
  • 250030Z 08009KT 050V110 9999 FEW040 25/15 Q1011
  • 250000Z 08010KT 050V110 9999 FEW040 25/15 Q1011
  • 242330Z 07011KT 040V100 9999 FEW050 25/15 Q1011
  • 242300Z 08010KT 050V120 9999 FEW050 25/15 Q1011
  • 242230Z 08011KT 9999 FEW050 25/15 Q1011
  • 242200Z 08011KT 050V110 9999 FEW050 25/15 Q1011 BECMG 07007KT

TAF TAF LDZD
Valid from the 25 at 00:00 until the 26 at 00:00 UTC


242325Z 2500/2600 07007KT 9999 FEW050 TX29/2513Z TN18/2523Z
PROB30
TEMPO 2500/2505 -TSRA FEW050CB
PROB40
TEMPO 2505/2510 4000 TSRA FEW030CB BKN040
BECMG 2512/2514 18008KT
PROB30
TEMPO 2512/2515 TS BKN040 FEW050CB
BECMG 2518/2520 VRB02KT
PROB40
TEMPO 2521/2600 TSRA FEW045CB SCT055



MET'MAP, your aeronautical weather chart ! - Copyright ORBIFLY December 2007 - Disclaimer

ORBIFLY MET'MAP TEAM :

Programming & Development : Alexandra Zaïnal
Original concept : Baudouin d'Aumeries
Technical & hardware support : Manuel Goepfert
Assistance : Marc-Olivier Méhu




SOURCES & CREDITS :

   NOAA